Time;durP1;ratioP1;P1;durP2;ratioP2;P2;SDS_P1;SDS_P2;PMS_P1;PMS_P2;Temp;Humidity;BMP_temperature;BMP_pressure;BME280_temperature;BME280_humidity;BME280_pressure;Samples;Min_cycle;Max_cycle;Signal;HPM_P1;HPM_P2
2022/03/21 00:00:49;;;;;;;11.70;6.15;;;8.60;51.60;;;;;;5065844;28;20053;-64
2022/03/21 00:03:18;;;;;;;14.68;7.70;;;8.50;51.60;;;;;;5072686;28;20037;-64
2022/03/21 00:05:46;;;;;;;10.88;5.55;;;8.60;51.20;;;;;;5064794;28;20140;-65
2022/03/21 00:08:14;;;;;;;13.93;6.05;;;8.50;51.60;;;;;;5060548;28;20032;-65
2022/03/21 00:10:41;;;;;;;14.13;6.40;;;8.50;51.60;;;;;;5066774;28;20853;-63
2022/03/21 00:13:09;;;;;;;9.02;5.03;;;8.50;51.30;;;;;;5068776;28;20094;-66
2022/03/21 00:15:36;;;;;;;10.48;5.40;;;8.40;51.60;;;;;;5070329;28;20136;-64
2022/03/21 00:18:06;;;;;;;12.35;5.78;;;8.40;51.70;;;;;;5065393;28;20126;-64
2022/03/21 00:20:34;;;;;;;12.85;7.03;;;8.40;51.70;;;;;;5062750;28;20086;-64
2022/03/21 00:23:01;;;;;;;11.70;6.55;;;8.40;51.90;;;;;;5064729;28;20631;-63
2022/03/21 00:25:28;;;;;;;13.00;6.07;;;8.30;51.90;;;;;;5050215;28;20749;-64
2022/03/21 00:27:56;;;;;;;13.05;6.60;;;8.40;51.90;;;;;;5070677;28;20072;-65
2022/03/21 00:30:23;;;;;;;13.00;5.90;;;8.30;51.80;;;;;;5068727;28;20056;-64
2022/03/21 00:32:50;;;;;;;12.73;5.63;;;8.30;51.70;;;;;;5065087;28;20127;-65
2022/03/21 00:35:19;;;;;;;10.20;5.22;;;8.30;51.90;;;;;;5051759;28;20113;-65
2022/03/21 00:37:47;;;;;;;10.43;5.72;;;8.20;51.90;;;;;;5072776;28;20393;-64
2022/03/21 00:40:16;;;;;;;10.80;5.53;;;8.20;52.10;;;;;;5060490;28;20508;-66
2022/03/21 00:42:44;;;;;;;10.40;5.82;;;8.20;52.30;;;;;;5069224;28;20126;-64
2022/03/21 00:45:13;;;;;;;12.35;6.10;;;8.10;52.80;;;;;;5063390;28;20052;-64
2022/03/21 00:47:43;;;;;;;10.68;5.40;;;8.10;53.10;;;;;;5062754;28;20148;-65
2022/03/21 00:50:13;;;;;;;11.32;5.13;;;8.10;52.80;;;;;;5063598;28;20040;-65
2022/03/21 00:52:46;;;;;;;11.35;5.95;;;8.10;52.60;;;;;;5060432;28;20040;-65
2022/03/21 00:55:14;;;;;;;11.38;6.28;;;8.10;52.80;;;;;;5065041;28;20123;-65
2022/03/21 00:57:43;;;;;;;12.30;5.68;;;8.00;53.20;;;;;;5069130;28;20044;-64
2022/03/21 01:00:13;;;;;;;14.57;5.53;;;8.00;53.20;;;;;;5061509;28;20127;-64
2022/03/21 01:02:41;;;;;;;9.45;5.70;;;7.90;53.60;;;;;;5063767;28;20037;-65
2022/03/21 01:05:09;;;;;;;10.30;5.35;;;7.80;53.70;;;;;;5069148;28;20516;-66
2022/03/21 01:07:38;;;;;;;13.52;6.15;;;7.80;53.70;;;;;;5069238;28;20102;-66
2022/03/21 01:10:10;;;;;;;13.45;5.40;;;7.90;53.60;;;;;;5062113;28;20040;-64
2022/03/21 01:12:37;;;;;;;10.35;5.40;;;7.80;53.50;;;;;;5067582;28;20439;-64
2022/03/21 01:15:05;;;;;;;10.23;5.30;;;7.80;53.60;;;;;;5064912;28;20045;-65
2022/03/21 01:17:32;;;;;;;12.25;6.22;;;7.80;53.90;;;;;;5068074;28;20068;-65
2022/03/21 01:19:59;;;;;;;9.45;5.43;;;7.70;54.20;;;;;;5058297;28;20045;-65
2022/03/21 01:22:26;;;;;;;15.93;5.88;;;7.70;54.00;;;;;;5059147;28;20041;-64
2022/03/21 01:24:53;;;;;;;12.48;5.53;;;7.70;54.40;;;;;;5058710;28;20094;-64
2022/03/21 01:27:22;;;;;;;11.10;5.85;;;7.70;54.40;;;;;;5057220;28;20433;-65
2022/03/21 01:29:49;;;;;;;9.10;5.28;;;7.70;54.70;;;;;;5061955;28;20556;-64
2022/03/21 01:32:16;;;;;;;9.85;5.65;;;7.60;54.40;;;;;;5067290;28;20083;-65
2022/03/21 01:34:43;;;;;;;11.18;4.88;;;7.60;54.90;;;;;;5062392;28;20091;-65
2022/03/21 01:37:11;;;;;;;11.32;5.18;;;7.60;54.60;;;;;;5067081;28;20049;-64
2022/03/21 01:39:37;;;;;;;11.70;5.95;;;7.50;54.60;;;;;;5052425;28;20421;-63
2022/03/21 01:42:07;;;;;;;10.60;4.78;;;7.50;54.20;;;;;;5068169;28;20088;-64
2022/03/21 01:44:35;;;;;;;10.93;4.95;;;7.50;54.50;;;;;;5060681;28;20512;-64
2022/03/21 01:47:03;;;;;;;10.27;5.93;;;7.50;54.40;;;;;;5057419;28;20066;-65
2022/03/21 01:49:30;;;;;;;13.63;5.20;;;7.40;54.50;;;;;;5061070;28;20052;-63
2022/03/21 01:51:57;;;;;;;10.95;5.28;;;7.40;54.80;;;;;;5059988;28;20033;-65
2022/03/21 01:57:09;;;;;;;11.18;5.15;;;7.40;55.10;;;;;;5059273;28;20040;-64
2022/03/21 01:59:38;;;;;;;10.85;5.95;;;7.30;54.70;;;;;;5058005;28;20052;-67
2022/03/21 02:02:06;;;;;;;11.63;5.25;;;7.30;54.90;;;;;;5056544;28;20041;-63
2022/03/21 02:04:33;;;;;;;9.50;5.22;;;7.30;55.00;;;;;;5061906;28;20045;-64
2022/03/21 02:07:01;;;;;;;9.25;4.93;;;7.30;55.10;;;;;;5066290;28;20033;-64
2022/03/21 02:09:29;;;;;;;10.10;5.32;;;7.20;55.00;;;;;;5063491;28;20083;-64
2022/03/21 02:11:56;;;;;;;9.15;4.40;;;7.20;55.10;;;;;;5062053;28;20416;-66
2022/03/21 02:14:25;;;;;;;9.55;5.45;;;7.20;55.10;;;;;;5059216;28;20152;-64
2022/03/21 02:16:53;;;;;;;12.45;5.25;;;7.20;54.90;;;;;;5060127;28;20047;-65
2022/03/21 02:19:25;;;;;;;10.43;5.18;;;7.20;54.80;;;;;;5056157;28;20044;-64
2022/03/21 02:22:08;;;;;;;9.90;4.78;;;7.20;54.80;;;;;;5060260;28;20049;-64
2022/03/21 02:24:42;;;;;;;10.48;5.63;;;7.10;54.60;;;;;;5052839;28;20124;-63
2022/03/21 02:27:12;;;;;;;11.30;4.78;;;7.20;54.60;;;;;;5062728;28;20033;-64
2022/03/21 02:29:41;;;;;;;9.98;5.00;;;7.20;54.30;;;;;;5062854;28;20406;-63
2022/03/21 02:32:09;;;;;;;14.18;5.35;;;7.20;53.80;;;;;;5062130;28;20032;-64
2022/03/21 02:34:38;;;;;;;12.75;5.13;;;7.20;53.60;;;;;;5070406;28;20036;-63
2022/03/21 02:37:07;;;;;;;12.10;5.88;;;7.20;53.60;;;;;;5070235;28;20032;-66
2022/03/21 02:39:36;;;;;;;11.88;4.97;;;7.20;53.40;;;;;;5064758;28;20406;-63
2022/03/21 02:42:04;;;;;;;10.18;5.13;;;7.20;53.40;;;;;;5067747;28;20075;-63
2022/03/21 02:44:35;;;;;;;11.23;5.55;;;7.20;53.00;;;;;;5068300;28;20155;-65
2022/03/21 02:47:03;;;;;;;9.20;4.75;;;7.20;52.90;;;;;;5067323;28;20167;-66
2022/03/21 02:49:30;;;;;;;11.95;4.95;;;7.20;52.40;;;;;;5069686;28;20056;-65
2022/03/21 02:52:00;;;;;;;12.45;4.78;;;7.30;52.50;;;;;;5064312;28;20040;-66
2022/03/21 02:54:27;;;;;;;9.98;5.13;;;7.20;52.40;;;;;;5061737;28;20051;-64
2022/03/21 02:56:55;;;;;;;8.10;4.70;;;7.20;52.30;;;;;;5060854;28;20047;-65
2022/03/21 02:59:22;;;;;;;9.73;5.07;;;7.30;52.40;;;;;;5066343;28;20049;-64
2022/03/21 03:01:53;;;;;;;11.07;5.28;;;7.20;52.40;;;;;;5057495;28;20045;-64
2022/03/21 03:04:24;;;;;;;9.30;4.97;;;7.30;52.50;;;;;;5060759;28;20048;-64
2022/03/21 03:06:51;;;;;;;10.73;5.28;;;7.20;52.40;;;;;;5063848;28;20051;-64
2022/03/21 03:09:19;;;;;;;11.13;5.22;;;7.20;52.40;;;;;;5069048;28;20048;-65
2022/03/21 03:11:46;;;;;;;10.85;5.07;;;7.20;52.40;;;;;;5069970;28;20413;-63
2022/03/21 03:14:13;;;;;;;10.45;5.70;;;7.20;52.40;;;;;;5073773;28;20040;-63
2022/03/21 03:16:40;;;;;;;12.95;5.32;;;7.20;52.70;;;;;;5061418;28;20036;-64
2022/03/21 03:19:08;;;;;;;10.88;5.70;;;7.10;52.90;;;;;;5057886;28;20050;-64
2022/03/21 03:21:37;;;;;;;11.57;4.88;;;7.10;53.30;;;;;;5055308;28;20128;-64
2022/03/21 03:24:05;;;;;;;10.35;5.05;;;7.10;53.10;;;;;;5064742;28;20064;-67
2022/03/21 03:26:32;;;;;;;9.85;4.70;;;7.10;53.00;;;;;;5064279;28;20044;-65
2022/03/21 03:28:59;;;;;;;10.27;5.40;;;7.00;52.80;;;;;;5065802;28;20037;-65
2022/03/21 03:31:26;;;;;;;10.13;5.35;;;7.00;52.70;;;;;;5071938;28;20055;-64
2022/03/21 03:33:54;;;;;;;12.80;5.13;;;7.00;53.00;;;;;;5068062;28;20036;-64
2022/03/21 03:36:23;;;;;;;9.27;4.90;;;6.90;53.40;;;;;;5060792;28;20044;-68
2022/03/21 03:38:51;;;;;;;9.40;4.78;;;6.90;53.80;;;;;;5064990;28;20576;-63
2022/03/21 03:41:19;;;;;;;10.30;4.95;;;6.90;54.20;;;;;;5057912;28;20069;-68
2022/03/21 03:43:47;;;;;;;13.15;4.78;;;6.80;54.60;;;;;;5058540;28;20052;-64
2022/03/21 03:46:16;;;;;;;10.30;4.70;;;6.70;55.00;;;;;;5056523;28;20045;-64
2022/03/21 03:48:43;;;;;;;9.98;4.88;;;6.70;55.30;;;;;;5050118;28;20047;-65
2022/03/21 03:51:11;;;;;;;10.40;4.65;;;6.60;55.60;;;;;;5062900;28;20040;-65
2022/03/21 03:53:39;;;;;;;12.18;5.43;;;6.60;55.70;;;;;;5049757;28;20049;-65
2022/03/21 03:56:07;;;;;;;11.52;4.88;;;6.50;56.00;;;;;;5061305;28;20048;-65
2022/03/21 03:58:34;;;;;;;10.88;4.90;;;6.40;56.30;;;;;;5071023;28;20040;-64
2022/03/21 04:01:04;;;;;;;13.68;4.80;;;6.40;56.40;;;;;;5056715;28;20053;-64
2022/03/21 04:03:46;;;;;;;8.75;4.75;;;6.40;56.60;;;;;;5065558;28;20151;-65
2022/03/21 04:06:14;;;;;;;9.98;4.95;;;6.40;56.50;;;;;;5069466;28;20454;-63
2022/03/21 04:08:42;;;;;;;9.35;4.65;;;6.30;56.70;;;;;;5069849;28;20751;-65
2022/03/21 04:11:09;;;;;;;10.60;5.10;;;6.30;56.90;;;;;;5070415;28;20060;-63
2022/03/21 04:13:36;;;;;;;12.43;5.38;;;6.20;57.10;;;;;;5069522;28;20390;-64
2022/03/21 04:16:04;;;;;;;8.05;4.13;;;6.20;57.00;;;;;;5071314;28;20119;-64
2022/03/21 04:18:31;;;;;;;10.30;5.35;;;6.20;57.10;;;;;;5070095;28;20040;-64
2022/03/21 04:20:58;;;;;;;12.60;5.22;;;6.10;57.20;;;;;;5074214;28;20040;-66
2022/03/21 04:23:25;;;;;;;11.18;5.00;;;6.10;57.40;;;;;;5064876;28;20048;-66
2022/03/21 04:25:53;;;;;;;10.68;5.10;;;6.00;57.50;;;;;;5072752;28;20071;-63
2022/03/21 04:28:21;;;;;;;11.10;4.63;;;6.10;57.50;;;;;;5068233;28;20056;-66
2022/03/21 04:30:48;;;;;;;10.90;5.70;;;6.00;57.70;;;;;;5067943;28;20097;-63
2022/03/21 04:33:15;;;;;;;9.70;5.15;;;6.00;57.70;;;;;;5070102;28;20632;-64
2022/03/21 04:35:43;;;;;;;12.13;5.28;;;6.00;57.80;;;;;;5069997;28;20083;-62
2022/03/21 04:38:14;;;;;;;9.80;4.88;;;5.90;57.90;;;;;;5060602;28;20422;-64
2022/03/21 04:40:42;;;;;;;12.00;4.85;;;6.00;57.70;;;;;;5065552;28;20440;-62
2022/03/21 04:43:13;;;;;;;10.00;4.80;;;6.00;57.40;;;;;;5061009;28;20121;-63
2022/03/21 04:45:40;;;;;;;;;;;6.00;57.50;;;;;;5065716;28;20040;-67
2022/03/21 04:48:07;;;;;;;8.68;4.40;;;5.90;57.50;;;;;;5061063;28;19920;-66
2022/03/21 04:50:34;;;;;;;11.38;5.25;;;5.90;57.70;;;;;;5062165;28;20114;-66
2022/03/21 04:53:01;;;;;;;10.00;4.75;;;6.00;57.70;;;;;;5069987;28;20391;-65
2022/03/21 04:55:29;;;;;;;10.85;5.22;;;5.90;58.10;;;;;;5067977;28;20141;-64
2022/03/21 04:57:57;;;;;;;12.18;4.43;;;5.80;58.30;;;;;;5061782;28;20040;-64
2022/03/21 05:00:25;;;;;;;10.32;5.25;;;5.70;58.70;;;;;;5057544;28;20234;-66
2022/03/21 05:02:52;;;;;;;8.48;4.25;;;5.70;58.50;;;;;;5065184;28;20693;-63
2022/03/21 05:05:20;;;;;;;11.88;4.93;;;5.70;58.60;;;;;;5068024;28;20513;-65
2022/03/21 05:07:52;;;;;;;13.95;4.43;;;5.70;58.50;;;;;;5069928;28;20044;-64
2022/03/21 05:10:21;;;;;;;11.02;5.53;;;5.70;58.40;;;;;;5070414;28;20140;-64
2022/03/21 05:12:49;;;;;;;8.00;4.20;;;5.70;58.30;;;;;;5060256;28;20045;-64
2022/03/21 05:15:16;;;;;;;11.63;5.43;;;5.70;58.20;;;;;;5053733;28;20120;-63
2022/03/21 05:17:45;;;;;;;9.15;4.88;;;5.70;58.10;;;;;;5049062;28;20040;-62
2022/03/21 05:20:16;;;;;;;11.05;5.20;;;5.70;58.10;;;;;;5068899;28;20055;-65
2022/03/21 05:22:43;;;;;;;11.30;5.47;;;5.70;58.10;;;;;;5068943;28;20135;-63
2022/03/21 05:30:58;;;;;;;10.48;4.50;;;5.60;57.90;;;;;;5068724;28;20111;-64
2022/03/21 05:36:12;;;;;;;10.75;4.95;;;5.60;58.20;;;;;;5070939;28;20049;-64
2022/03/21 05:38:39;;;;;;;12.52;5.35;;;5.60;58.00;;;;;;5068751;28;20162;-62
2022/03/21 05:41:06;;;;;;;9.95;5.05;;;5.70;57.40;;;;;;5069775;28;20067;-64
2022/03/21 05:43:34;;;;;;;8.63;5.10;;;5.60;57.60;;;;;;5068109;28;20135;-63
2022/03/21 05:46:03;;;;;;;12.50;4.75;;;5.60;58.00;;;;;;5067688;28;20051;-63
2022/03/21 05:51:18;;;;;;;8.82;4.78;;;5.70;58.30;;;;;;5064879;28;20043;-64
2022/03/21 05:53:46;;;;;;;10.55;5.32;;;5.70;58.30;;;;;;5062881;28;20036;-62
2022/03/21 05:56:14;;;;;;;10.35;4.93;;;5.70;58.30;;;;;;5073586;28;20068;-62
2022/03/21 05:58:41;;;;;;;11.05;4.47;;;5.70;58.20;;;;;;5067208;28;20062;-64
2022/03/21 06:01:10;;;;;;;10.82;4.03;;;5.60;58.40;;;;;;5060697;28;20037;-62
2022/03/21 06:03:39;;;;;;;11.00;5.20;;;5.50;58.50;;;;;;5074983;28;20042;-62
2022/03/21 06:06:06;;;;;;;13.52;6.45;;;5.60;58.30;;;;;;5074049;28;20068;-63
2022/03/21 06:08:33;;;;;;;11.02;5.50;;;5.70;58.20;;;;;;5069838;28;20087;-66
2022/03/21 06:11:08;;;;;;;13.40;4.85;;;5.70;57.70;;;;;;5066326;28;20094;-63
2022/03/21 06:13:36;;;;;;;10.55;4.45;;;5.70;57.70;;;;;;5076588;28;20052;-64
2022/03/21 06:16:05;;;;;;;10.35;5.55;;;5.70;57.80;;;;;;5063881;28;20041;-63
2022/03/21 06:18:33;;;;;;;11.48;5.32;;;5.70;57.80;;;;;;5073623;28;20570;-64
2022/03/21 06:21:02;;;;;;;12.82;5.43;;;5.70;58.20;;;;;;5078882;28;20044;-63
2022/03/21 06:23:29;;;;;;;8.55;4.65;;;5.80;58.10;;;;;;5070943;28;20412;-63
2022/03/21 06:25:58;;;;;;;12.02;4.95;;;5.90;57.90;;;;;;5070397;28;20068;-63
2022/03/21 06:28:26;;;;;;;12.13;5.20;;;5.90;57.20;;;;;;5067748;28;20047;-62
2022/03/21 06:30:53;;;;;;;11.63;5.40;;;6.00;57.30;;;;;;5075157;28;20039;-63
2022/03/21 06:33:24;;;;;;;12.15;5.35;;;6.00;57.20;;;;;;5071502;28;20045;-63
2022/03/21 06:35:54;;;;;;;9.57;4.78;;;6.10;57.10;;;;;;5073401;28;20466;-63
2022/03/21 06:38:23;;;;;;;9.80;4.63;;;6.10;56.90;;;;;;5071640;28;20048;-64
2022/03/21 06:40:50;;;;;;;9.95;5.07;;;6.10;56.80;;;;;;5077815;28;20413;-64
2022/03/21 06:43:20;;;;;;;11.10;5.07;;;6.20;56.60;;;;;;5073653;28;20059;-64
2022/03/21 06:45:50;;;;;;;10.57;4.60;;;6.20;56.50;;;;;;5071300;28;20540;-64
2022/03/21 06:48:16;;;;;;;9.70;5.22;;;6.40;56.40;;;;;;5074425;28;20036;-63
2022/03/21 06:50:46;;;;;;;11.82;5.65;;;6.40;56.00;;;;;;5071983;28;20047;-65
2022/03/21 06:53:13;;;;;;;13.23;5.28;;;6.60;55.70;;;;;;5071736;28;20090;-62
2022/03/21 06:55:42;;;;;;;10.52;4.80;;;6.70;54.70;;;;;;5070477;28;20068;-64
2022/03/21 06:58:11;;;;;;;10.07;4.78;;;6.70;54.80;;;;;;5074587;28;20555;-63
2022/03/21 07:00:40;;;;;;;10.07;4.75;;;6.80;54.50;;;;;;5066943;28;20056;-63
2022/03/21 07:03:08;;;;;;;9.95;5.63;;;6.90;54.40;;;;;;5072371;28;20036;-63
2022/03/21 07:05:35;;;;;;;9.43;4.38;;;6.90;54.20;;;;;;5066814;28;20135;-64
2022/03/21 07:08:03;;;;;;;11.07;4.40;;;7.00;53.30;;;;;;5066628;28;20549;-64
2022/03/21 07:10:32;;;;;;;11.57;4.78;;;7.00;52.70;;;;;;5074152;28;20450;-64
2022/03/21 07:13:01;;;;;;;13.80;4.82;;;7.10;52.50;;;;;;5075041;28;20121;-64
2022/03/21 07:15:28;;;;;;;16.05;6.28;;;7.10;51.80;;;;;;5072640;28;20041;-63
2022/03/21 07:17:56;;;;;;;10.07;5.18;;;7.20;52.00;;;;;;5070968;28;20052;-63
2022/03/21 07:20:25;;;;;;;10.55;4.70;;;7.20;52.10;;;;;;5073662;28;20048;-64
2022/03/21 07:22:53;;;;;;;9.68;4.20;;;7.20;52.00;;;;;;5075520;28;20041;-63
2022/03/21 07:25:20;;;;;;;11.48;5.20;;;7.20;51.60;;;;;;5062110;28;20605;-63
2022/03/21 07:27:47;;;;;;;9.27;4.85;;;7.30;51.70;;;;;;5075419;28;20493;-63
2022/03/21 07:30:17;;;;;;;10.55;5.82;;;7.30;51.50;;;;;;5074436;28;20505;-63
2022/03/21 07:32:45;;;;;;;7.60;4.37;;;7.30;51.50;;;;;;5071168;28;20056;-63
2022/03/21 07:35:13;;;;;;;12.20;4.40;;;7.40;51.60;;;;;;5066263;28;20064;-62
2022/03/21 07:37:41;;;;;;;12.15;4.70;;;7.40;51.40;;;;;;5070150;28;20090;-63
2022/03/21 07:40:11;;;;;;;12.38;5.53;;;7.40;50.80;;;;;;5071068;28;20498;-63
2022/03/21 07:42:38;;;;;;;12.45;4.97;;;7.40;50.50;;;;;;5067878;28;20062;-64
2022/03/21 07:47:52;;;;;;;7.97;4.43;;;7.50;49.70;;;;;;5073925;28;20114;-62
2022/03/21 07:50:19;;;;;;;10.57;4.32;;;7.60;49.60;;;;;;5073367;28;21274;-64
2022/03/21 07:52:46;;;;;;;9.35;4.32;;;7.70;49.40;;;;;;5070788;28;20049;-63
2022/03/21 07:55:14;;;;;;;11.75;5.20;;;7.80;49.10;;;;;;5069524;28;20119;-66
2022/03/21 07:57:41;;;;;;;11.70;4.47;;;7.90;48.40;;;;;;5073006;28;20036;-66
2022/03/21 08:00:09;;;;;;;10.43;4.63;;;8.00;48.10;;;;;;5068787;28;20051;-63
2022/03/21 08:02:39;;;;;;;10.95;5.15;;;8.10;47.90;;;;;;5072152;28;20433;-63
2022/03/21 08:05:08;;;;;;;13.35;5.65;;;8.20;48.00;;;;;;5072109;28;20043;-64
2022/03/21 08:07:36;;;;;;;7.75;4.28;;;8.40;47.80;;;;;;5072624;28;20127;-64
2022/03/21 08:10:04;;;;;;;11.77;5.43;;;8.40;47.60;;;;;;5076962;28;20114;-64
2022/03/21 08:12:31;;;;;;;9.52;4.82;;;8.50;47.80;;;;;;5071867;28;21220;-64
2022/03/21 08:14:59;;;;;;;11.50;5.20;;;8.60;47.70;;;;;;5070491;28;20041;-65
2022/03/21 08:17:27;;;;;;;11.25;5.07;;;8.70;47.40;;;;;;5067963;28;20055;-64
2022/03/21 08:19:54;;;;;;;11.55;5.20;;;8.80;47.30;;;;;;5073224;28;20059;-63
2022/03/21 08:22:22;;;;;;;9.48;5.35;;;8.90;47.40;;;;;;5071671;28;20413;-64
2022/03/21 08:24:52;;;;;;;11.10;5.28;;;8.90;47.30;;;;;;5072670;28;20146;-63
2022/03/21 08:27:19;;;;;;;11.43;5.65;;;9.10;47.10;;;;;;5067514;28;20044;-63
2022/03/21 08:29:46;;;;;;;12.25;4.75;;;9.20;47.00;;;;;;5071787;28;20078;-63
2022/03/21 08:32:13;;;;;;;12.05;5.57;;;9.20;47.20;;;;;;5073074;28;20055;-65
2022/03/21 08:34:39;;;;;;;13.32;5.45;;;9.30;46.90;;;;;;5073693;28;20052;-65
2022/03/21 08:37:06;;;;;;;9.88;4.68;;;9.40;47.30;;;;;;5071084;28;20040;-63
2022/03/21 08:39:36;;;;;;;9.45;4.65;;;9.50;47.60;;;;;;5074017;28;20102;-65
2022/03/21 08:42:04;;;;;;;12.07;5.10;;;9.60;46.80;;;;;;5075273;28;20071;-65
2022/03/21 08:44:31;;;;;;;9.68;4.72;;;9.70;46.80;;;;;;5068416;28;20399;-64
2022/03/21 08:46:58;;;;;;;10.85;4.63;;;9.80;46.50;;;;;;5074134;28;20059;-64
2022/03/21 08:49:26;;;;;;;10.10;5.05;;;9.90;46.50;;;;;;5054566;28;20986;-64
2022/03/21 08:51:53;;;;;;;10.82;4.78;;;10.00;46.00;;;;;;5065788;28;20442;-64
2022/03/21 08:54:21;;;;;;;11.85;5.47;;;10.10;45.90;;;;;;5074259;28;20052;-63
2022/03/21 08:56:49;;;;;;;12.27;5.47;;;10.10;46.20;;;;;;5067991;28;20052;-65
2022/03/21 08:59:16;;;;;;;9.35;4.93;;;10.20;45.60;;;;;;5075061;28;20048;-64
2022/03/21 09:01:43;;;;;;;10.98;5.10;;;10.20;45.80;;;;;;5070103;28;20037;-64
2022/03/21 09:04:10;;;;;;;10.82;5.20;;;10.40;45.70;;;;;;5073683;28;20089;-64
2022/03/21 09:06:37;;;;;;;10.35;4.43;;;10.40;45.80;;;;;;5068795;28;20048;-63
2022/03/21 09:09:04;;;;;;;10.40;4.53;;;10.40;45.90;;;;;;5070768;28;20051;-63
2022/03/21 09:11:32;;;;;;;11.07;5.22;;;10.50;46.30;;;;;;5072753;28;20057;-65
2022/03/21 09:14:01;;;;;;;9.02;5.22;;;10.60;46.30;;;;;;5070213;28;20036;-65
2022/03/21 09:16:29;;;;;;;9.32;5.07;;;10.70;46.10;;;;;;5068401;28;20048;-63
2022/03/21 09:18:56;;;;;;;10.90;5.15;;;10.70;45.70;;;;;;5070123;28;20040;-65
2022/03/21 09:21:22;;;;;;;8.93;4.30;;;10.80;45.50;;;;;;5066017;28;20067;-64
2022/03/21 09:23:50;;;;;;;9.15;4.88;;;10.90;45.70;;;;;;5071164;28;20036;-65
2022/03/21 09:26:17;;;;;;;9.05;4.65;;;10.90;44.90;;;;;;5069544;28;20040;-64
2022/03/21 09:28:44;;;;;;;10.90;5.80;;;11.00;44.90;;;;;;5072042;28;20049;-65
2022/03/21 09:31:13;;;;;;;10.30;5.47;;;11.10;45.60;;;;;;5075010;28;20055;-64
2022/03/21 09:33:41;;;;;;;9.60;5.30;;;11.20;45.40;;;;;;5079326;28;20093;-65
2022/03/21 09:36:08;;;;;;;12.82;5.88;;;11.20;45.20;;;;;;5074507;28;20036;-63
2022/03/21 09:38:37;;;;;;;9.13;4.70;;;11.30;44.50;;;;;;5075585;28;20052;-63
2022/03/21 09:41:04;;;;;;;10.93;5.07;;;11.40;44.50;;;;;;5080226;28;20044;-64
2022/03/21 09:43:31;;;;;;;8.50;4.72;;;11.40;44.20;;;;;;5071774;28;20131;-64
2022/03/21 09:45:59;;;;;;;10.88;4.68;;;11.50;44.50;;;;;;5068665;28;20052;-65
2022/03/21 09:48:28;;;;;;;9.70;5.38;;;11.50;43.60;;;;;;5067969;28;20055;-65
2022/03/21 09:50:56;;;;;;;8.73;5.00;;;11.60;43.40;;;;;;5075649;28;20131;-65
2022/03/21 09:53:25;;;;;;;10.93;5.00;;;11.60;43.80;;;;;;5068886;28;20052;-64
2022/03/21 09:55:52;;;;;;;8.00;4.63;;;11.70;43.40;;;;;;5076033;28;20521;-65
2022/03/21 09:58:20;;;;;;;10.02;4.70;;;11.80;43.90;;;;;;5074494;28;20045;-65
2022/03/21 10:00:49;;;;;;;9.77;5.10;;;11.80;44.30;;;;;;5069541;28;20051;-65
2022/03/21 10:03:16;;;;;;;7.35;4.15;;;11.90;44.20;;;;;;5069279;28;20041;-64
2022/03/21 10:05:46;;;;;;;8.57;4.25;;;12.00;44.40;;;;;;5074516;28;20039;-65
2022/03/21 10:08:14;;;;;;;;;;;12.10;43.90;;;;;;5075358;28;20413;-65
2022/03/21 10:10:51;;;;;;;11.75;4.55;;;12.10;43.80;;;;;;5069609;28;19927;-66
2022/03/21 10:13:18;;;;;;;10.10;4.07;;;12.20;44.00;;;;;;5074595;28;20118;-65
2022/03/21 10:15:45;;;;;;;9.00;4.07;;;12.20;44.20;;;;;;5078971;28;20048;-67
2022/03/21 10:18:13;;;;;;;9.27;4.95;;;12.30;44.40;;;;;;5073587;28;20040;-65
2022/03/21 10:20:41;;;;;;;9.77;4.70;;;12.40;44.00;;;;;;5072584;28;20044;-66
2022/03/21 10:23:22;;;;;;;10.88;4.35;;;12.40;43.90;;;;;;5079606;28;20124;-66
2022/03/21 10:25:49;;;;;;;8.55;4.15;;;12.40;43.60;;;;;;5075587;28;20048;-64
2022/03/21 10:28:36;;;;;;;8.40;4.55;;;12.50;43.60;;;;;;5073654;28;20098;-65
2022/03/21 10:31:05;;;;;;;8.75;4.78;;;12.60;43.20;;;;;;5073243;28;20140;-67
2022/03/21 10:33:32;;;;;;;10.48;4.50;;;12.60;43.20;;;;;;5074096;28;20072;-64
2022/03/21 10:36:05;;;;;;;10.73;4.57;;;12.60;42.90;;;;;;5067415;28;20067;-65
2022/03/21 10:38:35;;;;;;;7.07;3.80;;;12.70;43.50;;;;;;5075017;28;20040;-66
2022/03/21 10:41:09;;;;;;;;;;;12.70;43.70;;;;;;5074571;28;20043;-65
2022/03/21 10:43:37;;;;;;;8.55;3.83;;;12.80;43.30;;;;;;5074703;28;19924;-66
2022/03/21 10:46:10;;;;;;;7.82;4.05;;;12.80;42.70;;;;;;5072544;28;20048;-68
2022/03/21 10:48:38;;;;;;;9.43;4.78;;;12.90;42.20;;;;;;5076566;28;20353;-65
2022/03/21 10:51:07;;;;;;;9.00;4.95;;;12.90;41.90;;;;;;5076923;28;20052;-65
2022/03/21 10:53:41;;;;;;;10.05;4.80;;;13.00;42.50;;;;;;5075799;28;20977;-67
2022/03/21 10:56:09;;;;;;;6.75;4.28;;;13.10;41.20;;;;;;5076062;28;20048;-65
2022/03/21 10:58:38;;;;;;;8.75;4.80;;;13.10;41.50;;;;;;5074334;28;20074;-66
2022/03/21 11:01:14;;;;;;;11.05;4.68;;;13.10;40.90;;;;;;5074752;28;20139;-66
2022/03/21 11:03:42;;;;;;;10.45;4.28;;;13.20;41.30;;;;;;5075000;28;20044;-65
2022/03/21 11:06:10;;;;;;;9.82;5.85;;;13.20;41.60;;;;;;5073030;28;20079;-66
2022/03/21 11:08:39;;;;;;;8.30;4.22;;;13.20;41.50;;;;;;5073894;28;20048;-67
2022/03/21 11:11:07;;;;;;;9.52;4.60;;;13.20;41.60;;;;;;5072333;28;20044;-66
2022/03/21 11:13:34;;;;;;;9.93;4.60;;;13.30;41.10;;;;;;5074809;28;20044;-66
2022/03/21 11:16:04;;;;;;;8.65;4.18;;;13.30;41.20;;;;;;5073729;28;20041;-64
2022/03/21 11:18:31;;;;;;;8.18;4.45;;;13.30;41.10;;;;;;5074402;28;20501;-65
2022/03/21 11:20:59;;;;;;;8.80;4.15;;;13.30;41.10;;;;;;5073284;28;20123;-64
2022/03/21 11:23:29;;;;;;;7.93;4.28;;;13.40;40.60;;;;;;5076023;28;20059;-66
2022/03/21 11:26:04;;;;;;;13.30;4.32;;;13.30;40.80;;;;;;5079219;28;20114;-65
2022/03/21 11:28:54;;;;;;;10.45;4.50;;;13.40;41.10;;;;;;5069717;28;20037;-65
2022/03/21 11:31:38;;;;;;;8.80;4.20;;;13.40;41.00;;;;;;5070849;28;20053;-65
2022/03/21 11:34:20;;;;;;;9.73;4.28;;;13.40;40.90;;;;;;5073785;28;20463;-65
2022/03/21 11:36:51;;;;;;;8.38;4.85;;;13.40;41.00;;;;;;5072188;28;20086;-65
2022/03/21 11:39:18;;;;;;;10.00;4.72;;;13.40;40.40;;;;;;5071481;28;20647;-68
2022/03/21 11:41:58;;;;;;;9.13;4.15;;;13.50;40.10;;;;;;5059246;28;20041;-66
2022/03/21 11:44:25;;;;;;;;;;;13.50;40.50;;;;;;5073964;28;20043;-69
2022/03/21 11:46:52;;;;;;;7.93;4.28;;;13.50;40.70;;;;;;5075831;28;20016;-67
2022/03/21 11:49:53;;;;;;;10.52;5.25;;;13.50;40.70;;;;;;5072671;28;20045;-66
2022/03/21 11:52:21;;;;;;;9.90;4.18;;;13.50;40.30;;;;;;4997273;28;20062;-67
2022/03/21 11:54:48;;;;;;;9.80;4.65;;;13.60;40.50;;;;;;5001142;28;20050;-66
2022/03/21 11:57:27;;;;;;;9.35;4.78;;;13.60;40.90;;;;;;5025099;28;20053;-68
2022/03/21 11:59:59;;;;;;;10.63;4.43;;;13.60;41.10;;;;;;5074557;28;20144;-66
2022/03/21 12:02:57;;;;;;;9.52;4.95;;;13.60;41.30;;;;;;5062814;28;20160;-66
2022/03/21 12:05:46;;;;;;;11.10;5.35;;;13.60;41.50;;;;;;5076223;28;20068;-65
2022/03/21 12:08:56;;;;;;;9.02;4.90;;;13.60;41.70;;;;;;5078812;28;20110;-68
2022/03/21 12:12:05;;;;;;;12.57;4.88;;;13.60;41.40;;;;;;5076408;28;20055;-65
2022/03/21 12:14:44;;;;;;;9.87;5.70;;;13.60;41.50;;;;;;5078803;28;20040;-65
2022/03/21 12:17:28;;;;;;;8.98;4.85;;;13.60;41.70;;;;;;5076935;28;20466;-66
2022/03/21 12:20:01;;;;;;;7.95;4.72;;;13.60;41.60;;;;;;5082671;28;20101;-65
2022/03/21 12:22:39;;;;;;;10.55;4.70;;;13.60;41.70;;;;;;5076372;28;20051;-66
2022/03/21 12:25:09;;;;;;;8.55;4.53;;;13.70;41.50;;;;;;5076746;28;20048;-66
2022/03/21 12:27:38;;;;;;;9.77;4.28;;;13.70;41.60;;;;;;5076246;28;20040;-67
2022/03/21 12:30:35;;;;;;;10.52;4.95;;;13.70;41.20;;;;;;5074898;28;20112;-65
2022/03/21 12:33:32;;;;;;;10.18;4.93;;;13.70;41.70;;;;;;5078770;28;20048;-67
2022/03/21 12:36:06;;;;;;;12.52;4.88;;;13.70;41.90;;;;;;4995056;28;20065;-67
2022/03/21 12:38:40;;;;;;;10.25;4.50;;;13.70;42.10;;;;;;5063614;28;20150;-66
2022/03/21 12:41:09;;;;;;;9.63;5.07;;;13.70;42.30;;;;;;5082727;28;20507;-65
2022/03/21 12:43:47;;;;;;;11.10;4.18;;;13.70;42.30;;;;;;5075321;28;20142;-64
2022/03/21 12:46:18;;;;;;;8.45;3.95;;;13.70;42.80;;;;;;5072852;28;20175;-67
2022/03/21 12:48:47;;;;;;;11.80;4.88;;;13.70;42.70;;;;;;5077819;28;20132;-65
2022/03/21 12:51:23;;;;;;;9.25;4.63;;;13.70;42.20;;;;;;5078016;28;20040;-65
2022/03/21 12:53:50;;;;;;;8.40;4.47;;;13.70;42.60;;;;;;5070818;28;20131;-67
2022/03/21 12:56:20;;;;;;;11.05;5.53;;;13.70;42.70;;;;;;5077530;28;20072;-66
2022/03/21 12:58:49;;;;;;;9.90;4.90;;;13.70;42.10;;;;;;5077588;28;20056;-67
2022/03/21 13:01:19;;;;;;;10.07;4.80;;;13.70;42.50;;;;;;5073527;28;20490;-67
2022/03/21 13:03:47;;;;;;;9.38;4.78;;;13.70;42.40;;;;;;5079008;28;20046;-66
2022/03/21 13:11:52;;;;;;;7.32;4.18;;;13.70;42.00;;;;;;5016077;28;20056;-64
2022/03/21 13:14:21;;;;;;;7.78;4.30;;;13.70;42.50;;;;;;5081746;28;20059;-66
2022/03/21 13:16:51;;;;;;;9.40;4.60;;;13.70;42.40;;;;;;5055862;28;20041;-65
2022/03/21 13:19:20;;;;;;;;;;;13.70;42.40;;;;;;5076367;28;20051;-66
2022/03/21 13:21:48;;;;;;;11.15;4.82;;;13.60;43.00;;;;;;5077352;28;19979;-66